createdAt,value
2023-01-26T00:02:22.220Z,11.07
2023-01-26T00:04:50.470Z,10.02
2023-01-26T00:07:18.675Z,9.93
2023-01-26T00:09:46.841Z,9.55
2023-01-26T00:12:15.128Z,9.68
2023-01-26T00:14:53.324Z,9.18
2023-01-26T00:17:28.156Z,9.88
2023-01-26T00:19:58.254Z,9.88
2023-01-26T00:22:28.065Z,9.23
2023-01-26T00:24:56.297Z,10.00
2023-01-26T00:27:24.634Z,9.90
2023-01-26T00:29:54.861Z,9.95
2023-01-26T00:32:23.105Z,9.45
2023-01-26T00:34:51.374Z,9.85
2023-01-26T00:37:20.033Z,9.88
2023-01-26T00:39:48.265Z,9.82
2023-01-26T00:42:16.649Z,9.15
2023-01-26T00:44:45.029Z,10.73
2023-01-26T00:47:16.215Z,10.48
2023-01-26T00:49:47.279Z,9.55
2023-01-26T00:52:15.658Z,9.30
2023-01-26T00:54:44.001Z,10.57
2023-01-26T00:57:12.371Z,9.70
2023-01-26T00:59:40.918Z,9.77
2023-01-26T01:02:09.297Z,9.63
2023-01-26T01:04:39.006Z,9.23
2023-01-26T01:07:07.305Z,10.05
2023-01-26T01:09:35.683Z,10.15
2023-01-26T01:12:03.962Z,10.70
2023-01-26T01:14:32.469Z,10.32
2023-01-26T01:17:00.872Z,11.07
2023-01-26T01:19:29.226Z,9.90
2023-01-26T01:21:58.850Z,9.82
2023-01-26T01:24:27.163Z,10.35
2023-01-26T01:26:55.514Z,10.10
2023-01-26T01:29:23.771Z,11.10
2023-01-26T01:31:52.169Z,9.88
2023-01-26T01:34:20.427Z,10.55
2023-01-26T01:36:48.723Z,9.85
2023-01-26T01:39:18.415Z,10.65
2023-01-26T01:41:46.825Z,10.63
2023-01-26T01:44:21.006Z,10.68
2023-01-26T01:46:54.921Z,10.55
2023-01-26T01:49:27.691Z,9.93
2023-01-26T01:52:01.420Z,10.00
2023-01-26T01:54:36.477Z,10.13
2023-01-26T01:57:17.729Z,10.45
2023-01-26T01:59:51.118Z,10.20
2023-01-26T02:02:19.830Z,9.45
2023-01-26T02:04:49.255Z,10.27
2023-01-26T02:07:17.825Z,11.07
2023-01-26T02:10:05.379Z,11.30
2023-01-26T02:12:35.061Z,10.55
2023-01-26T02:15:04.551Z,10.95
2023-01-26T02:17:33.227Z,10.25
2023-01-26T02:20:06.221Z,10.57
2023-01-26T02:22:43.291Z,9.48
2023-01-26T02:25:23.907Z,10.77
2023-01-26T02:27:53.710Z,10.45
2023-01-26T02:30:23.840Z,9.88
2023-01-26T02:32:52.287Z,10.20
2023-01-26T02:35:21.055Z,9.73
2023-01-26T02:37:49.573Z,10.57
2023-01-26T02:40:26.094Z,9.88
2023-01-26T02:42:55.191Z,10.30
2023-01-26T02:45:24.949Z,9.75
2023-01-26T02:47:53.637Z,9.70
2023-01-26T02:50:20.911Z,9.82
2023-01-26T02:52:49.221Z,10.00
2023-01-26T02:55:22.445Z,9.98
2023-01-26T02:57:51.717Z,9.77
2023-01-26T03:00:23.099Z,9.60
2023-01-26T03:02:54.771Z,9.60
2023-01-26T03:05:25.435Z,9.70
2023-01-26T03:07:54.458Z,9.05
2023-01-26T03:10:27.142Z,10.25
2023-01-26T03:12:55.574Z,9.40
2023-01-26T03:15:43.829Z,9.40
2023-01-26T03:18:32.983Z,9.38
2023-01-26T03:21:19.569Z,9.10
2023-01-26T03:24:05.682Z,9.60
2023-01-26T03:26:52.291Z,10.25
2023-01-26T03:29:21.612Z,9.73
2023-01-26T03:31:51.283Z,10.30
2023-01-26T03:34:20.535Z,10.57
2023-01-26T03:36:49.825Z,9.77
2023-01-26T03:39:37.992Z,9.93
2023-01-26T03:42:24.538Z,9.65
2023-01-26T03:45:10.717Z,9.68
2023-01-26T03:48:01.065Z,10.52
2023-01-26T03:50:48.336Z,10.90
2023-01-26T03:53:36.295Z,10.57
2023-01-26T03:56:18.382Z,10.75
2023-01-26T03:58:49.653Z,9.77
2023-01-26T04:01:20.111Z,10.13
2023-01-26T04:04:11.321Z,9.88
2023-01-26T04:07:01.545Z,9.50
2023-01-26T04:09:30.043Z,10.02
2023-01-26T04:11:59.510Z,10.57
2023-01-26T04:14:50.055Z,10.85
2023-01-26T04:17:39.143Z,9.98
2023-01-26T04:20:29.478Z,10.35
2023-01-26T04:22:57.985Z,10.15
2023-01-26T04:25:26.382Z,9.77
2023-01-26T04:27:57.673Z,10.25
2023-01-26T04:30:26.024Z,10.15
2023-01-26T04:32:54.429Z,10.55
2023-01-26T04:35:24.097Z,10.70
2023-01-26T04:37:52.396Z,10.63
2023-01-26T04:40:20.867Z,10.68
2023-01-26T04:42:50.567Z,10.02
2023-01-26T04:45:19.314Z,10.55
2023-01-26T04:47:48.701Z,9.90
2023-01-26T04:50:18.551Z,10.15
2023-01-26T04:52:49.754Z,9.63
2023-01-26T04:55:18.507Z,10.10
2023-01-26T04:57:47.533Z,9.48
2023-01-26T05:00:16.203Z,9.57
2023-01-26T05:02:45.424Z,8.55
2023-01-26T05:05:13.978Z,7.72
2023-01-26T05:07:42.773Z,7.35
2023-01-26T05:10:15.754Z,7.15
2023-01-26T05:13:04.461Z,7.53
2023-01-26T05:15:44.656Z,7.18
2023-01-26T05:18:17.229Z,6.95
2023-01-26T05:20:57.832Z,7.00
2023-01-26T05:23:28.408Z,7.80
2023-01-26T05:26:24.308Z,7.18
2023-01-26T05:29:02.422Z,6.95
2023-01-26T05:31:30.805Z,6.40
2023-01-26T05:33:59.847Z,7.63
2023-01-26T05:36:28.201Z,7.53
2023-01-26T05:38:56.781Z,7.47
2023-01-26T05:41:31.868Z,7.82
2023-01-26T05:44:22.993Z,7.05
2023-01-26T05:47:06.559Z,7.60
2023-01-26T05:49:35.363Z,7.78
2023-01-26T05:52:03.626Z,7.82
2023-01-26T05:54:32.189Z,7.10
2023-01-26T05:57:02.955Z,8.20
2023-01-26T05:59:32.667Z,7.15
2023-01-26T06:02:01.974Z,7.75
2023-01-26T06:04:30.883Z,7.20
2023-01-26T06:07:01.538Z,7.10
2023-01-26T06:09:45.193Z,7.65
2023-01-26T06:12:31.583Z,7.78
2023-01-26T06:15:04.376Z,7.43
2023-01-26T06:17:38.377Z,7.10
2023-01-26T06:20:11.445Z,7.40
2023-01-26T06:22:40.343Z,7.97
2023-01-26T06:25:10.002Z,7.90
2023-01-26T06:27:42.615Z,7.55
2023-01-26T06:30:25.472Z,7.35
2023-01-26T06:32:55.954Z,8.43
2023-01-26T06:35:25.200Z,8.50
2023-01-26T06:37:56.195Z,7.60
2023-01-26T06:40:24.626Z,8.13
2023-01-26T06:42:55.355Z,8.00
2023-01-26T06:45:23.757Z,7.68
2023-01-26T06:47:55.977Z,6.68
2023-01-26T06:50:28.141Z,6.90
2023-01-26T06:52:57.728Z,5.53
2023-01-26T06:55:49.402Z,5.65
2023-01-26T06:58:45.762Z,5.22
2023-01-26T07:01:37.619Z,5.07
2023-01-26T07:04:05.982Z,4.72
2023-01-26T07:06:34.446Z,5.40
2023-01-26T07:09:02.671Z,4.63
2023-01-26T07:11:32.472Z,5.32
2023-01-26T07:14:02.127Z,5.25
2023-01-26T07:16:33.357Z,4.32
2023-01-26T07:21:30.454Z,3.95
2023-01-26T07:23:58.679Z,4.63
2023-01-26T07:26:27.147Z,4.72
2023-01-26T07:28:55.498Z,4.40
2023-01-26T07:31:25.216Z,4.60
2023-01-26T07:33:53.590Z,4.13
2023-01-26T07:36:21.898Z,4.40
2023-01-26T07:38:50.143Z,4.40
2023-01-26T07:41:18.477Z,4.78
2023-01-26T07:43:46.679Z,4.47
2023-01-26T07:46:14.994Z,4.13
2023-01-26T07:48:44.937Z,4.28
2023-01-26T07:51:13.234Z,4.07
2023-01-26T07:53:43.553Z,4.10
2023-01-26T07:56:13.564Z,4.88
2023-01-26T07:58:41.932Z,4.38
2023-01-26T08:01:12.071Z,4.45
2023-01-26T08:03:41.044Z,5.00
2023-01-26T08:06:13.757Z,4.22
2023-01-26T08:08:43.260Z,4.50
2023-01-26T08:11:12.641Z,4.70
2023-01-26T08:13:41.059Z,4.43
2023-01-26T08:16:12.566Z,4.65
2023-01-26T08:18:41.830Z,9.23
2023-01-26T08:21:12.257Z,5.63
2023-01-26T08:26:12.241Z,4.57
2023-01-26T08:28:40.891Z,4.60
2023-01-26T08:31:12.162Z,4.70
2023-01-26T08:33:41.570Z,4.75
2023-01-26T08:36:14.047Z,4.65
2023-01-26T08:38:42.838Z,4.55
2023-01-26T08:41:11.886Z,4.50
2023-01-26T08:43:40.364Z,4.90
2023-01-26T08:46:08.881Z,4.57
2023-01-26T08:48:37.531Z,4.53
2023-01-26T08:51:07.477Z,5.18
2023-01-26T08:53:38.404Z,6.75
2023-01-26T08:56:09.079Z,6.13
2023-01-26T08:58:37.736Z,5.63
2023-01-26T09:01:07.102Z,5.03
2023-01-26T09:03:36.274Z,5.57
2023-01-26T09:06:05.423Z,4.95
2023-01-26T09:08:34.008Z,5.28
2023-01-26T09:11:04.014Z,5.22
2023-01-26T09:13:32.335Z,5.60
2023-01-26T09:16:03.971Z,5.07
2023-01-26T09:18:32.638Z,5.80
2023-01-26T09:21:04.887Z,6.65
2023-01-26T09:23:33.663Z,5.82
2023-01-26T09:26:03.718Z,6.03
2023-01-26T09:28:32.062Z,6.35
2023-01-26T09:31:05.080Z,5.75
2023-01-26T09:33:33.945Z,6.35
2023-01-26T09:36:05.833Z,5.80
2023-01-26T09:38:34.125Z,6.32
2023-01-26T09:41:08.594Z,6.70
2023-01-26T09:43:41.711Z,6.25
2023-01-26T09:46:23.359Z,6.53
2023-01-26T09:51:33.235Z,5.90
2023-01-26T09:54:05.588Z,6.22
2023-01-26T09:56:35.394Z,6.38
2023-01-26T09:59:21.114Z,7.07
2023-01-26T10:01:57.365Z,8.52
2023-01-26T10:04:33.902Z,7.80
2023-01-26T10:07:05.515Z,9.35
2023-01-26T10:09:49.777Z,7.80
2023-01-26T10:12:24.009Z,8.77
2023-01-26T10:14:57.667Z,8.40
2023-01-26T10:17:31.406Z,9.85
2023-01-26T10:20:05.061Z,9.98
2023-01-26T10:22:41.505Z,9.13
2023-01-26T10:25:16.732Z,9.93
2023-01-26T10:27:47.333Z,9.55
2023-01-26T10:30:17.129Z,9.63
2023-01-26T10:32:48.068Z,9.75
2023-01-26T10:35:19.901Z,7.35
2023-01-26T10:37:52.972Z,8.65
2023-01-26T10:40:22.474Z,10.10
2023-01-26T10:42:59.923Z,9.30
2023-01-26T10:45:31.048Z,9.40
2023-01-26T10:48:14.476Z,10.60
2023-01-26T10:50:42.983Z,10.15
2023-01-26T10:53:17.527Z,10.32
2023-01-26T10:56:00.099Z,9.98
2023-01-26T10:58:44.871Z,9.55
2023-01-26T11:01:15.631Z,9.60
2023-01-26T11:03:44.586Z,9.32
2023-01-26T11:06:16.780Z,9.65
2023-01-26T11:08:48.335Z,9.45
2023-01-26T11:11:27.626Z,9.38
2023-01-26T11:14:20.130Z,10.63
2023-01-26T11:17:01.669Z,9.82
2023-01-26T11:19:47.676Z,9.93
2023-01-26T11:22:20.714Z,8.85
2023-01-26T11:24:57.187Z,9.52
2023-01-26T11:27:38.250Z,9.38
2023-01-26T11:30:39.024Z,9.23
2023-01-26T11:33:18.148Z,8.90
2023-01-26T11:35:55.242Z,9.40
2023-01-26T11:38:38.956Z,8.75
2023-01-26T11:41:25.362Z,8.48
2023-01-26T11:44:06.054Z,9.25
2023-01-26T11:46:57.844Z,9.57
2023-01-26T11:52:09.036Z,8.52
2023-01-26T11:54:59.138Z,8.70
2023-01-26T11:57:34.927Z,9.70
2023-01-26T12:00:09.425Z,8.85
2023-01-26T12:02:50.383Z,8.57
2023-01-26T12:05:22.678Z,13.95
2023-01-26T12:07:56.274Z,9.57
2023-01-26T12:10:28.838Z,10.18
2023-01-26T12:13:02.129Z,10.02
2023-01-26T12:15:35.647Z,10.15
2023-01-26T12:18:15.470Z,8.80
2023-01-26T12:20:46.680Z,9.02
2023-01-26T12:23:27.500Z,9.55
2023-01-26T12:25:59.826Z,8.27
2023-01-26T12:28:33.994Z,7.78
2023-01-26T12:31:09.246Z,7.85
2023-01-26T12:33:39.584Z,7.95
2023-01-26T12:36:19.456Z,7.40
2023-01-26T12:39:01.307Z,8.13
2023-01-26T12:41:37.879Z,7.28
2023-01-26T12:44:21.384Z,7.88
2023-01-26T12:46:56.080Z,6.97
2023-01-26T12:49:31.043Z,7.75
2023-01-26T12:52:05.556Z,7.68
2023-01-26T12:54:39.657Z,8.77
2023-01-26T12:57:13.925Z,7.75
2023-01-26T12:59:48.476Z,7.63
2023-01-26T13:02:38.600Z,7.60
2023-01-26T13:05:26.618Z,7.53
2023-01-26T13:07:55.363Z,7.13
2023-01-26T13:10:30.506Z,7.32
2023-01-26T13:13:02.729Z,7.55
2023-01-26T13:15:33.222Z,7.15
2023-01-26T13:18:03.083Z,8.25
2023-01-26T13:20:53.690Z,7.35
2023-01-26T13:23:52.909Z,6.75
2023-01-26T13:26:52.704Z,7.68
2023-01-26T13:29:36.540Z,9.10
2023-01-26T13:32:38.371Z,6.97
2023-01-26T13:35:13.149Z,7.57
2023-01-26T13:37:50.536Z,7.80
2023-01-26T13:40:22.280Z,8.23
2023-01-26T13:42:56.951Z,7.22
2023-01-26T13:45:33.926Z,8.25
2023-01-26T13:48:06.143Z,7.90
2023-01-26T13:50:38.029Z,8.32
2023-01-26T13:53:38.866Z,8.93
2023-01-26T13:56:30.768Z,7.63
2023-01-26T13:59:11.055Z,8.40
2023-01-26T14:01:44.661Z,7.72
2023-01-26T14:04:20.132Z,8.52
2023-01-26T14:06:53.768Z,7.88
2023-01-26T14:09:22.217Z,7.80
2023-01-26T14:11:59.668Z,7.70
2023-01-26T14:14:30.510Z,8.70
2023-01-26T14:16:59.711Z,8.27
2023-01-26T14:19:29.303Z,8.27
2023-01-26T14:22:00.151Z,8.00
2023-01-26T14:24:34.721Z,8.85
2023-01-26T14:27:05.033Z,8.43
2023-01-26T14:29:39.738Z,7.80
2023-01-26T14:32:16.788Z,8.30
2023-01-26T14:34:53.923Z,9.10
2023-01-26T14:37:22.535Z,9.77
2023-01-26T14:39:51.000Z,10.77
2023-01-26T14:42:21.816Z,10.48
2023-01-26T14:44:50.167Z,10.50
2023-01-26T14:47:22.403Z,10.13
2023-01-26T14:49:55.047Z,9.55
2023-01-26T14:52:26.106Z,9.23
2023-01-26T14:54:55.516Z,8.98
2023-01-26T14:57:27.230Z,8.65
2023-01-26T14:59:59.247Z,8.50
2023-01-26T15:02:37.181Z,8.45
2023-01-26T15:05:12.994Z,8.55
2023-01-26T15:07:44.105Z,8.10
2023-01-26T15:10:37.225Z,8.18
2023-01-26T15:13:19.731Z,8.50
2023-01-26T15:15:49.771Z,8.18
2023-01-26T15:18:20.482Z,8.02
2023-01-26T15:21:00.583Z,8.45
2023-01-26T15:23:31.524Z,8.43
2023-01-26T15:26:08.103Z,7.90
2023-01-26T15:28:38.840Z,7.85
2023-01-26T15:31:08.372Z,8.52
2023-01-26T15:33:51.196Z,7.68
2023-01-26T15:36:29.800Z,7.85
2023-01-26T15:39:01.771Z,7.80
2023-01-26T15:41:30.592Z,7.68
2023-01-26T15:44:00.462Z,7.72
2023-01-26T15:46:28.807Z,8.35
2023-01-26T15:48:57.163Z,7.55
2023-01-26T15:51:25.536Z,8.45
2023-01-26T15:53:53.808Z,8.35
2023-01-26T15:56:22.110Z,7.65
2023-01-26T15:58:50.414Z,7.50
2023-01-26T16:01:22.836Z,8.48
2023-01-26T16:03:51.979Z,61.85
2023-01-26T16:06:25.202Z,88.95
2023-01-26T16:08:53.582Z,89.65
2023-01-26T16:11:22.652Z,77.97
2023-01-26T16:14:02.952Z,77.28
2023-01-26T16:16:33.462Z,57.07
2023-01-26T16:19:01.925Z,47.85
2023-01-26T16:21:34.027Z,41.63
2023-01-26T16:24:03.262Z,27.42
2023-01-26T16:26:34.359Z,34.35
2023-01-26T16:29:02.594Z,58.83
2023-01-26T16:31:34.686Z,129.40
2023-01-26T16:34:03.516Z,90.30
2023-01-26T16:36:31.743Z,82.13
2023-01-26T16:39:00.088Z,63.60
2023-01-26T16:41:30.431Z,45.38
2023-01-26T16:44:00.401Z,31.30
2023-01-26T16:46:30.287Z,34.65
2023-01-26T16:49:00.348Z,37.90
2023-01-26T16:51:31.350Z,69.10
2023-01-26T16:54:00.417Z,70.13
2023-01-26T16:56:29.143Z,62.42
2023-01-26T16:58:57.460Z,52.22
2023-01-26T17:01:28.266Z,42.80
2023-01-26T17:03:57.132Z,32.88
2023-01-26T17:06:26.982Z,23.30
2023-01-26T17:08:55.267Z,18.10
2023-01-26T17:11:27.637Z,14.13
2023-01-26T17:13:57.060Z,12.13
2023-01-26T17:16:29.492Z,10.98
2023-01-26T17:18:58.150Z,10.38
2023-01-26T17:21:27.928Z,10.10
2023-01-26T17:23:58.877Z,9.20
2023-01-26T17:26:27.331Z,9.43
2023-01-26T17:28:56.940Z,9.40
2023-01-26T17:31:25.945Z,8.88
2023-01-26T17:33:55.574Z,9.85
2023-01-26T17:36:24.644Z,9.30
2023-01-26T17:38:54.346Z,10.18
2023-01-26T17:41:22.740Z,9.90
2023-01-26T17:43:51.731Z,8.57
2023-01-26T17:46:21.881Z,9.82
2023-01-26T17:48:50.863Z,9.18
2023-01-26T17:51:20.644Z,9.13
2023-01-26T17:53:50.719Z,8.98
2023-01-26T17:56:21.769Z,8.85
2023-01-26T17:58:51.395Z,8.65
2023-01-26T18:01:20.625Z,8.38
2023-01-26T18:03:49.212Z,9.25
2023-01-26T18:06:17.696Z,8.45
2023-01-26T18:08:46.188Z,8.95
2023-01-26T18:11:16.206Z,8.70
2023-01-26T18:13:46.035Z,8.82
2023-01-26T18:16:17.612Z,8.93
2023-01-26T18:21:17.040Z,8.52
2023-01-26T18:23:47.035Z,9.00
2023-01-26T18:26:16.212Z,8.68
2023-01-26T18:28:46.939Z,8.95
2023-01-26T18:31:17.385Z,9.90
2023-01-26T18:33:46.675Z,9.10
2023-01-26T18:36:17.174Z,8.70
2023-01-26T18:38:50.155Z,8.32
2023-01-26T18:41:19.719Z,9.45
2023-01-26T18:43:51.514Z,8.63
2023-01-26T18:46:20.281Z,9.02
2023-01-26T18:48:49.098Z,9.30
2023-01-26T18:51:19.289Z,9.15
2023-01-26T18:53:47.788Z,8.88
2023-01-26T18:56:18.172Z,8.57
2023-01-26T18:58:46.879Z,9.05
2023-01-26T19:01:18.685Z,8.80
2023-01-26T19:03:47.919Z,8.00
2023-01-26T19:06:18.282Z,9.93
2023-01-26T19:08:47.238Z,11.85
2023-01-26T19:11:15.613Z,10.32
2023-01-26T19:13:48.782Z,9.57
2023-01-26T19:16:19.390Z,9.05
2023-01-26T19:18:47.726Z,8.40
2023-01-26T19:21:17.190Z,8.82
2023-01-26T19:23:45.891Z,8.95
2023-01-26T19:26:15.441Z,13.50
2023-01-26T19:28:43.764Z,59.80
2023-01-26T19:31:13.342Z,75.95
2023-01-26T19:33:43.097Z,77.68
2023-01-26T19:36:11.887Z,75.00
2023-01-26T19:38:40.688Z,72.15
2023-01-26T19:41:09.266Z,93.40
2023-01-26T19:43:37.845Z,50.78
2023-01-26T19:46:08.352Z,71.13
2023-01-26T19:48:36.956Z,109.47
2023-01-26T19:51:09.341Z,101.90
2023-01-26T19:53:40.191Z,127.82
2023-01-26T19:56:19.277Z,86.95
2023-01-26T19:58:51.328Z,56.50
2023-01-26T20:01:20.797Z,46.78
2023-01-26T20:03:54.018Z,31.20
2023-01-26T20:06:26.799Z,21.98
2023-01-26T20:08:55.684Z,16.45
2023-01-26T20:11:27.275Z,13.98
2023-01-26T20:13:56.837Z,11.65
2023-01-26T20:16:28.007Z,9.93
2023-01-26T20:18:56.764Z,8.38
2023-01-26T20:21:26.846Z,9.07
2023-01-26T20:23:56.211Z,8.05
2023-01-26T20:26:25.943Z,8.60
2023-01-26T20:28:57.958Z,7.70
2023-01-26T20:31:27.714Z,8.43
2023-01-26T20:33:56.522Z,7.90
2023-01-26T20:36:28.643Z,8.13
2023-01-26T20:38:57.291Z,7.05
2023-01-26T20:41:27.584Z,7.38
2023-01-26T20:44:00.493Z,7.15
2023-01-26T20:46:31.424Z,7.45
2023-01-26T20:49:01.224Z,6.93
2023-01-26T20:51:34.062Z,6.82
2023-01-26T20:54:02.952Z,7.18
2023-01-26T20:56:31.832Z,7.93
2023-01-26T20:59:00.483Z,7.50
2023-01-26T21:01:28.792Z,6.70
2023-01-26T21:03:57.126Z,7.32
2023-01-26T21:06:26.289Z,7.63
2023-01-26T21:08:58.513Z,7.05
2023-01-26T21:11:30.390Z,6.55
2023-01-26T21:14:00.588Z,7.50
2023-01-26T21:16:30.128Z,5.90
2023-01-26T21:18:58.793Z,6.40
2023-01-26T21:21:27.300Z,6.03
2023-01-26T21:23:57.017Z,6.70
2023-01-26T21:26:27.721Z,6.70
2023-01-26T21:28:58.114Z,6.03
2023-01-26T21:31:28.532Z,5.95
2023-01-26T21:33:57.555Z,5.90
2023-01-26T21:36:28.084Z,5.90
2023-01-26T21:38:59.435Z,5.75
2023-01-26T21:41:47.234Z,5.85
2023-01-26T21:44:17.493Z,6.30
2023-01-26T21:46:46.501Z,5.88
2023-01-26T21:49:15.441Z,5.60
2023-01-26T21:52:02.146Z,5.82
2023-01-26T21:54:32.496Z,6.20
2023-01-26T21:57:01.596Z,6.05
2023-01-26T21:59:29.596Z,6.07
2023-01-26T22:01:59.028Z,6.78
2023-01-26T22:04:29.181Z,7.10
2023-01-26T22:06:58.241Z,7.00
2023-01-26T22:09:26.607Z,6.45
2023-01-26T22:11:56.223Z,5.93
2023-01-26T22:14:26.168Z,6.85
2023-01-26T22:16:54.782Z,6.57
2023-01-26T22:19:23.153Z,6.47
2023-01-26T22:21:51.766Z,6.97
2023-01-26T22:24:20.686Z,6.38
2023-01-26T22:26:49.256Z,7.43
2023-01-26T22:29:19.061Z,7.53
2023-01-26T22:31:47.390Z,6.40
2023-01-26T22:34:15.682Z,7.13
2023-01-26T22:36:44.069Z,6.22
2023-01-26T22:39:13.235Z,7.68
2023-01-26T22:41:41.768Z,7.38
2023-01-26T22:44:10.698Z,6.80
2023-01-26T22:46:40.333Z,8.07
2023-01-26T22:49:08.554Z,6.57
2023-01-26T22:51:38.034Z,7.07
2023-01-26T22:54:06.671Z,6.53
2023-01-26T22:56:35.100Z,7.13
2023-01-26T22:59:03.412Z,7.60
2023-01-26T23:01:34.016Z,7.55
2023-01-26T23:04:04.028Z,7.90
2023-01-26T23:06:32.343Z,30.75
2023-01-26T23:09:01.258Z,58.58
2023-01-26T23:11:30.809Z,70.35
2023-01-26T23:14:00.295Z,79.13
2023-01-26T23:16:29.464Z,74.53
2023-01-26T23:18:59.403Z,57.67
2023-01-26T23:21:29.851Z,38.58
2023-01-26T23:23:58.409Z,27.45
2023-01-26T23:26:26.870Z,25.90
2023-01-26T23:28:55.168Z,75.47
2023-01-26T23:31:23.519Z,98.45
2023-01-26T23:33:51.894Z,78.45
2023-01-26T23:36:20.651Z,74.00
2023-01-26T23:38:50.730Z,69.10
2023-01-26T23:41:19.400Z,47.38
2023-01-26T23:43:47.662Z,32.67
2023-01-26T23:46:15.913Z,22.27
2023-01-26T23:48:44.163Z,16.40
2023-01-26T23:51:13.367Z,13.43
2023-01-26T23:53:41.962Z,11.45
2023-01-26T23:56:14.997Z,9.18
2023-01-26T23:58:43.357Z,8.85
